Time;durP1;ratioP1;P1;durP2;ratioP2;P2;SDS_P1;SDS_P2;PMS_P1;PMS_P2;Temp;Humidity;BMP_temperature;BMP_pressure;BME280_temperature;BME280_humidity;BME280_pressure;Samples;Min_cycle;Max_cycle;Signal;HPM_P1;HPM_P2
2023/01/02 01:11:42;;;;;;;5.23;4.30;;;;;;;12.00;59.43;98131.75;8449422;28;20238;-72
2023/01/02 01:20:01;;;;;;;4.40;3.93;;;;;;;12.51;57.92;98134.50;8621141;22;20429;-71
2023/01/02 01:24:04;;;;;;;5.07;4.07;;;;;;;12.67;57.50;98132.81;8284184;28;20226;-71
2023/01/02 01:28:08;;;;;;;3.97;3.60;;;;;;;12.59;57.77;98145.34;8283996;28;20248;-71
2023/01/02 01:32:11;;;;;;;7.13;4.30;;;;;;;12.42;57.61;98134.97;8283952;28;20477;-71
2023/01/02 01:36:16;;;;;;;4.10;3.70;;;;;;;12.57;57.47;98134.19;8283928;28;20397;-71
2023/01/02 01:40:19;;;;;;;4.20;3.80;;;;;;;12.63;57.35;98120.91;8283723;28;20234;-71
2023/01/02 01:44:56;;;;;;;5.13;3.63;;;;;;;12.72;56.78;98130.00;8283733;28;20243;-71
2023/01/02 01:49:03;;;;;;;5.40;3.53;;;;;;;12.35;57.38;98133.56;8183920;29;20238;-71
2023/01/02 01:53:08;;;;;;;5.43;3.77;;;;;;;12.37;57.58;98118.75;8231454;28;21381;-71
2023/01/02 01:57:14;;;;;;;4.97;3.50;;;;;;;11.84;59.23;98104.81;8283342;28;20257;-72
2023/01/02 02:01:18;;;;;;;4.17;3.77;;;;;;;11.97;58.73;98120.69;8275312;28;20228;-71
2023/01/02 02:05:24;;;;;;;4.00;3.63;;;;;;;12.30;58.00;98111.28;8274981;28;20523;-71
2023/01/02 02:09:31;;;;;;;5.07;3.70;;;;;;;12.38;57.46;98113.50;8274921;28;20239;-71
2023/01/02 02:13:34;;;;;;;3.80;3.47;;;;;;;12.26;57.80;98108.88;8274159;28;20223;-72
2023/01/02 02:17:46;;;;;;;4.53;3.87;;;;;;;11.92;58.52;98098.38;8274594;28;20231;-71
2023/01/02 02:22:25;;;;;;;3.57;3.27;;;;;;;11.95;58.44;98096.56;8281307;28;20257;-71
2023/01/02 02:26:58;;;;;;;6.30;3.50;;;;;;;11.93;58.38;98102.66;8260138;28;20510;-71
2023/01/02 02:31:09;;;;;;;3.83;3.30;;;;;;;11.81;58.91;98087.66;8280804;28;20233;-72
2023/01/02 02:35:19;;;;;;;4.10;3.67;;;;;;;12.16;57.67;98103.31;8281131;28;20219;-72
2023/01/02 02:39:26;;;;;;;3.50;3.20;;;;;;;12.04;57.86;98096.13;8281314;28;20235;-72
2023/01/02 02:43:36;;;;;;;4.67;3.60;;;;;;;11.87;58.62;98089.94;8280907;28;20239;-72
2023/01/02 02:47:44;;;;;;;3.60;3.30;;;;;;;11.81;57.92;98063.47;8280675;28;20235;-71
2023/01/02 02:51:50;;;;;;;4.50;3.50;;;;;;;11.74;58.44;98075.88;8272660;28;20234;-71
2023/01/02 02:55:55;;;;;;;3.43;3.13;;;;;;;11.47;59.50;98062.44;8280679;28;20231;-72
2023/01/02 02:59:58;;;;;;;3.73;3.37;;;;;;;11.68;58.81;98063.19;8280450;28;20230;-71
2023/01/02 03:04:04;;;;;;;3.53;3.23;;;;;;;11.80;58.63;98066.97;8280569;28;20393;-71
2023/01/02 03:08:11;;;;;;;4.67;3.60;;;;;;;12.02;57.77;98059.03;8280157;28;20231;-71
2023/01/02 03:12:29;;;;;;;3.50;3.20;;;;;;;11.67;58.58;98057.19;8280241;28;20242;-72
2023/01/02 03:16:37;;;;;;;4.07;3.57;;;;;;;11.66;59.00;98057.25;8280163;28;20227;-71
2023/01/02 03:20:44;;;;;;;3.60;3.03;;;;;;;11.63;58.82;98052.19;8242558;28;1094108;-72
2023/01/02 03:24:50;;;;;;;3.57;3.17;;;;;;;11.40;59.63;98042.88;8281386;28;20230;-71
2023/01/02 03:28:55;;;;;;;3.30;3.00;;;;;;;11.43;59.60;98048.78;8287799;28;20242;-71
2023/01/02 03:33:03;;;;;;;3.87;3.20;;;;;;;11.38;59.37;98039.53;8287664;28;20234;-71
2023/01/02 03:37:11;;;;;;;4.93;3.13;;;;;;;11.40;59.57;98043.72;8287807;28;20254;-72
2023/01/02 03:41:19;;;;;;;3.40;3.10;;;;;;;11.53;59.13;98042.25;8287612;28;20231;-71
2023/01/02 03:45:23;;;;;;;3.87;3.00;;;;;;;11.60;58.46;98037.63;8287594;28;20313;-72
2023/01/02 03:49:30;;;;;;;3.10;2.90;;;;;;;11.51;59.28;98040.63;8287404;28;20231;-71
2023/01/02 03:53:35;;;;;;;4.30;3.27;;;;;;;11.37;59.53;98036.09;8287080;28;20231;-71
2023/01/02 03:57:45;;;;;;;4.20;3.00;;;;;;;11.62;58.86;98043.56;8287122;28;20231;-72
2023/01/02 04:02:01;;;;;;;3.57;2.90;;;;;;;11.62;58.73;98037.56;8286732;28;20230;-72
2023/01/02 04:06:07;;;;;;;4.77;3.50;;;;;;;11.29;59.61;98033.88;8286655;28;20251;-71
2023/01/02 04:10:13;;;;;;;3.60;3.13;;;;;;;11.86;58.25;98046.75;8286656;28;20427;-71
2023/01/02 04:14:19;;;;;;;4.23;3.00;;;;;;;11.62;59.20;98038.38;8286589;28;20230;-71
2023/01/02 04:18:25;;;;;;;4.63;3.23;;;;;;;11.48;59.33;98041.63;8286337;28;20227;-72
2023/01/02 04:22:29;;;;;;;3.80;3.20;;;;;;;11.65;58.93;98043.44;8286085;28;20235;-71
2023/01/02 04:26:36;;;;;;;3.90;3.10;;;;;;;11.71;58.08;98042.31;8286269;28;20231;-72
2023/01/02 04:30:41;;;;;;;3.73;2.97;;;;;;;11.32;59.72;98046.66;8285922;28;20223;-72
2023/01/02 04:34:45;;;;;;;3.47;3.17;;;;;;;11.20;60.06;98043.81;8285742;28;20370;-71
2023/01/02 04:38:47;;;;;;;3.07;2.80;;;;;;;11.44;59.56;98049.63;8285229;28;20238;-71
2023/01/02 04:42:52;;;;;;;3.23;2.93;;;;;;;11.39;59.49;98049.00;8285566;28;20526;-71
2023/01/02 04:46:54;;;;;;;4.10;3.37;;;;;;;11.58;58.92;98054.19;8285571;28;20257;-71
2023/01/02 04:50:57;;;;;;;3.23;2.93;;;;;;;11.47;59.37;98050.31;8285589;28;20249;-72
2023/01/02 04:55:00;;;;;;;4.70;3.30;;;;;;;11.30;60.29;98047.66;8284981;28;20235;-71
2023/01/02 04:59:04;;;;;;;3.60;3.23;;;;;;;11.15;60.50;98051.78;8284934;28;20219;-71
2023/01/02 05:03:07;;;;;;;3.67;3.10;;;;;;;11.22;60.78;98048.00;8285128;28;20229;-71
2023/01/02 05:07:10;;;;;;;3.70;3.03;;;;;;;11.23;60.49;98044.53;8284926;28;20329;-72
2023/01/02 05:11:14;;;;;;;3.67;2.90;;;;;;;11.26;60.25;98034.00;8284913;28;20536;-72
2023/01/02 05:15:18;;;;;;;3.33;3.00;;;;;;;11.43;59.83;98048.78;8284876;28;20230;-72
2023/01/02 05:19:21;;;;;;;4.57;3.30;;;;;;;11.31;59.88;98055.38;8284485;28;20235;-71
2023/01/02 05:27:44;;;;;;;3.50;3.20;;;;;;;10.98;61.21;98047.38;8283706;28;20306;-71
2023/01/02 05:31:49;;;;;;;4.10;3.47;;;;;;;11.15;60.61;98050.03;8284057;28;20398;-71
2023/01/02 05:35:52;;;;;;;3.67;3.17;;;;;;;11.33;60.98;98050.13;8284266;28;20430;-71
2023/01/02 05:39:54;;;;;;;4.73;4.07;;;;;;;11.10;61.24;98051.16;8283997;28;20231;-71
2023/01/02 05:43:57;;;;;;;6.47;4.80;;;;;;;11.45;59.94;98057.31;8283869;28;20257;-71
2023/01/02 05:48:01;;;;;;;5.00;4.47;;;;;;;11.15;60.63;98056.97;8282676;28;20239;-71
2023/01/02 05:52:04;;;;;;;5.77;4.53;;;;;;;11.52;60.10;98057.91;8283537;28;20227;-71
2023/01/02 05:56:08;;;;;;;4.60;3.70;;;;;;;11.41;60.28;98057.56;8283439;28;20234;-71
2023/01/02 06:00:12;;;;;;;5.30;3.93;;;;;;;11.32;60.45;98064.00;8283616;28;20227;-72
2023/01/02 06:04:19;;;;;;;3.40;3.10;;;;;;;11.40;60.25;98055.84;8283161;28;20231;-71
2023/01/02 06:08:22;;;;;;;3.63;3.20;;;;;;;11.04;61.04;98056.63;8283166;28;20226;-72
2023/01/02 06:12:24;;;;;;;4.10;3.70;;;;;;;11.20;61.33;98062.81;8283047;28;20227;-71
2023/01/02 06:16:27;;;;;;;3.83;3.50;;;;;;;11.62;59.10;98056.53;8282850;28;20424;-72
2023/01/02 06:20:31;;;;;;;5.70;3.43;;;;;;;11.22;60.61;98067.91;8282493;28;20237;-71
2023/01/02 06:24:34;;;;;;;5.50;3.77;;;;;;;11.22;60.67;98067.91;8282736;28;20234;-72
2023/01/02 06:28:37;;;;;;;4.70;3.90;;;;;;;11.13;61.32;98074.34;8282637;28;20238;-72
2023/01/02 06:32:40;;;;;;;4.70;4.20;;;;;;;11.19;60.79;98066.28;8282175;28;20241;-71
2023/01/02 06:36:44;;;;;;;4.40;3.90;;;;;;;11.16;61.46;98066.44;8282085;28;20226;-71
2023/01/02 06:40:52;;;;;;;3.97;3.60;;;;;;;11.60;59.70;98079.13;8282445;28;20238;-71
2023/01/02 06:44:55;;;;;;;4.67;3.40;;;;;;;11.64;59.70;98082.41;8282074;28;20451;-71
2023/01/02 06:48:58;;;;;;;5.43;3.77;;;;;;;11.63;59.27;98072.94;8281391;28;20522;-71
2023/01/02 06:53:02;;;;;;;5.07;4.00;;;;;;;11.55;59.58;98088.84;8281932;28;27464;-71
2023/01/02 06:57:05;;;;;;;4.73;3.63;;;;;;;11.53;60.00;98099.28;8281659;28;20270;-71
2023/01/02 07:01:09;;;;;;;5.40;3.40;;;;;;;11.44;59.40;98083.31;8281587;28;20227;-71
2023/01/02 07:05:12;;;;;;;5.87;4.10;;;;;;;11.41;59.49;98099.88;8281814;28;20227;-71
2023/01/02 07:09:24;;;;;;;3.93;3.60;;;;;;;11.23;60.31;98080.81;8281644;28;20242;-71
2023/01/02 07:13:27;;;;;;;4.30;3.70;;;;;;;11.51;59.23;98088.16;8281447;28;20231;-71
2023/01/02 07:17:30;;;;;;;4.60;3.90;;;;;;;11.30;60.66;98086.56;8280877;28;20246;-71
2023/01/02 07:21:33;;;;;;;4.37;3.97;;;;;;;11.73;58.37;98090.59;8281112;28;20235;-73
2023/01/02 07:25:37;;;;;;;4.83;4.13;;;;;;;11.46;59.64;98100.50;8281176;28;20234;-73
2023/01/02 07:29:46;;;;;;;4.23;3.83;;;;;;;11.39;60.25;98104.28;8280668;28;20235;-73
2023/01/02 07:33:49;;;;;;;3.80;3.50;;;;;;;11.76;58.76;98110.38;8280879;28;20231;-71
2023/01/02 07:37:52;;;;;;;6.03;4.43;;;;;;;11.51;59.56;98110.66;8280999;28;20235;-71
2023/01/02 07:41:56;;;;;;;6.27;4.13;;;;;;;11.33;60.26;98110.59;8281103;28;20231;-71
2023/01/02 07:46:02;;;;;;;4.50;4.00;;;;;;;11.54;59.03;98108.78;8280902;28;20235;-71
2023/01/02 07:50:06;;;;;;;5.70;4.50;;;;;;;11.01;61.02;98113.78;8280811;28;20257;-71
2023/01/02 07:54:09;;;;;;;6.30;4.50;;;;;;;11.30;59.98;98112.47;8280996;28;20230;-71
2023/01/02 07:58:13;;;;;;;4.80;4.30;;;;;;;11.27;60.66;98118.66;8280886;28;20227;-71
2023/01/02 08:02:16;;;;;;;5.47;4.33;;;;;;;11.39;60.41;98126.78;8280937;28;20227;-72
2023/01/02 08:06:19;;;;;;;10.27;7.23;;;;;;;11.49;59.79;98122.88;8280918;28;20231;-71
2023/01/02 08:10:21;;;;;;;11.83;8.17;;;;;;;11.53;60.00;98135.59;8280717;28;20256;-71
2023/01/02 08:14:25;;;;;;;7.30;5.20;;;;;;;11.60;59.21;98135.34;8286627;28;20223;-72
2023/01/02 08:18:28;;;;;;;6.10;4.73;;;;;;;11.24;59.90;98136.94;8286544;28;20238;-72
2023/01/02 08:22:31;;;;;;;5.80;4.27;;;;;;;11.37;60.33;98139.00;8286458;28;20255;-72
2023/01/02 08:26:34;;;;;;;5.17;4.40;;;;;;;11.41;59.84;98135.34;8286333;28;20227;-72
2023/01/02 08:30:39;;;;;;;5.10;4.20;;;;;;;11.66;59.04;98140.25;8286180;28;20230;-72
2023/01/02 08:34:42;;;;;;;4.10;3.60;;;;;;;12.15;57.77;98148.38;8285534;28;20499;-71
2023/01/02 08:38:45;;;;;;;4.80;3.90;;;;;;;11.70;58.21;98150.41;8285691;28;20526;-71
2023/01/02 08:42:49;;;;;;;4.53;3.97;;;;;;;12.52;56.93;98146.56;8285971;28;20239;-71
2023/01/02 08:46:53;;;;;;;5.03;4.00;;;;;;;12.39;57.31;98155.88;8285386;28;20254;-71
2023/01/02 08:50:56;;;;;;;5.20;3.90;;;;;;;12.80;55.58;98155.59;8285940;28;20523;-72
2023/01/02 08:55:02;;;;;;;5.20;3.97;;;;;;;12.65;55.83;98158.03;8285579;28;20227;-72
2023/01/02 08:59:07;;;;;;;4.43;4.03;;;;;;;12.26;56.71;98134.84;8285392;28;20233;-73
2023/01/02 09:03:11;;;;;;;4.43;4.03;;;;;;;12.45;57.39;98174.63;8284975;28;20251;-73
2023/01/02 09:07:14;;;;;;;5.30;3.90;;;;;;;12.54;56.14;98169.88;8285362;28;20550;-73
2023/01/02 09:11:19;;;;;;;6.60;4.63;;;;;;;12.28;57.19;98175.44;8285814;28;20229;-73
2023/01/02 09:15:21;;;;;;;4.97;4.27;;;;;;;12.54;56.38;98182.88;8284671;28;20381;-73
2023/01/02 09:19:26;;;;;;;6.40;4.70;;;;;;;12.14;57.29;98183.03;8284448;28;20235;-73
2023/01/02 09:23:30;;;;;;;5.10;4.60;;;;;;;11.97;58.06;98177.78;8283888;28;20233;-74
2023/01/02 09:27:33;;;;;;;6.13;4.53;;;;;;;12.11;57.88;98189.22;8284490;28;20227;-75
2023/01/02 09:31:36;;;;;;;6.07;4.20;;;;;;;12.54;57.10;98198.44;8284378;28;20231;-72
2023/01/02 09:35:40;;;;;;;4.90;4.40;;;;;;;12.19;58.31;98198.41;8283514;28;20251;-72
2023/01/02 09:39:42;;;;;;;6.30;4.90;;;;;;;12.56;57.37;98194.03;8283382;28;20413;-71
2023/01/02 09:43:48;;;;;;;8.73;4.67;;;;;;;12.51;57.44;98199.44;8283599;28;20228;-71
2023/01/02 09:47:51;;;;;;;5.00;4.50;;;;;;;12.76;56.61;98190.47;8283516;28;20247;-72
2023/01/02 09:51:55;;;;;;;5.60;4.90;;;;;;;12.56;57.76;98186.22;8284820;28;20227;-73
2023/01/02 09:56:02;;;;;;;6.20;4.87;;;;;;;12.42;58.21;98190.34;8284916;28;20233;-72
2023/01/02 10:00:08;;;;;;;5.63;4.43;;;;;;;12.94;56.52;98186.91;8284098;28;20227;-74
2023/01/02 10:04:20;;;;;;;6.77;4.37;;;;;;;13.27;55.23;98196.53;8283769;28;20581;-74
2023/01/02 10:08:30;;;;;;;7.50;4.33;;;;;;;12.55;57.15;98195.78;8283939;28;20238;-74
2023/01/02 10:12:38;;;;;;;4.83;4.30;;;;;;;13.60;55.08;98180.94;8283406;28;20241;-75
2023/01/02 10:16:43;;;;;;;4.13;3.77;;;;;;;13.63;55.39;98177.31;8283724;28;20233;-73
2023/01/02 10:20:52;;;;;;;5.77;4.40;;;;;;;13.55;55.30;98182.09;8284088;28;20234;-73
2023/01/02 10:25:03;;;;;;;6.17;4.70;;;;;;;13.47;54.97;98188.53;8283103;28;20233;-74
2023/01/02 10:29:11;;;;;;;7.80;4.83;;;;;;;13.68;54.17;98190.94;8283343;28;20261;-74
2023/01/02 10:33:18;;;;;;;4.97;4.40;;;;;;;14.15;53.59;98184.09;8282794;28;20234;-75
2023/01/02 10:37:21;;;;;;;5.57;4.73;;;;;;;13.78;54.24;98184.31;8282933;28;20236;-76
2023/01/02 10:41:25;;;;;;;6.43;4.30;;;;;;;13.85;54.50;98195.25;8283140;28;20230;-79
2023/01/02 10:45:28;;;;;;;5.60;4.63;;;;;;;13.89;54.60;98205.41;8283913;28;20229;-79
2023/01/02 10:49:33;;;;;;;5.13;4.53;;;;;;;14.52;53.42;98201.09;8283362;28;20238;-80
2023/01/02 10:53:36;;;;;;;6.00;4.27;;;;;;;14.03;54.47;98191.66;8282628;28;20237;-79
2023/01/02 10:57:43;;;;;;;7.10;4.50;;;;;;;14.26;53.42;98200.78;8283137;28;20238;-79
2023/01/02 11:01:50;;;;;;;5.83;3.97;;;;;;;14.50;53.31;98189.06;8282219;28;20234;-79
2023/01/02 11:05:55;;;;;;;4.93;4.10;;;;;;;14.89;52.83;98198.16;8282936;28;20529;-80
2023/01/02 11:10:22;;;;;;;4.00;3.53;;;;;;;15.05;51.63;98193.72;8282028;28;20507;-78
2023/01/02 11:14:30;;;;;;;5.10;3.80;;;;;;;15.13;52.08;98188.91;8282412;28;20220;-78
2023/01/02 11:18:34;;;;;;;7.10;3.30;;;;;;;16.17;62.97;98191.31;8281749;28;20227;-77
2023/01/02 11:22:37;;;;;;;5.07;3.43;;;;;;;16.84;53.46;98186.09;8281958;28;20236;-77
2023/01/02 11:26:40;;;;;;;5.53;3.17;;;;;;;16.86;49.19;98192.06;8282028;28;20222;-77
2023/01/02 11:30:46;;;;;;;4.97;3.67;;;;;;;16.03;49.52;98193.00;8281471;28;20240;-77
2023/01/02 11:34:56;;;;;;;5.77;3.93;;;;;;;16.58;47.91;98198.22;8281918;28;20236;-77
2023/01/02 11:38:59;;;;;;;5.37;3.60;;;;;;;16.36;48.67;98189.19;8281645;28;20231;-78
2023/01/02 11:47:32;;;;;;;4.33;3.40;;;;;;;16.64;47.30;98187.41;8284247;28;20225;-78
2023/01/02 11:51:37;;;;;;;4.33;3.57;;;;;;;16.65;47.38;98190.84;8287367;28;20249;-78
2023/01/02 11:55:44;;;;;;;5.27;3.87;;;;;;;16.76;47.21;98191.81;8287367;28;20230;-77
2023/01/02 11:59:48;;;;;;;4.50;3.37;;;;;;;16.85;46.79;98187.78;8286550;28;20234;-78
2023/01/02 12:03:52;;;;;;;4.10;2.77;;;;;;;16.93;46.13;98184.66;8286652;28;20395;-78
2023/01/02 12:08:00;;;;;;;3.40;2.50;;;;;;;17.02;45.75;98188.41;8286660;28;20641;-78
2023/01/02 12:12:31;;;;;;;3.90;2.73;;;;;;;16.90;45.76;98179.63;8286957;28;20235;-77
2023/01/02 12:16:40;;;;;;;3.13;2.10;;;;;;;16.93;45.52;98205.59;8286323;28;20226;-78
2023/01/02 12:20:51;;;;;;;3.60;2.07;;;;;;;16.74;42.75;98196.31;8286027;28;20242;-77
2023/01/02 12:25:23;;;;;;;5.20;1.83;;;;;;;16.88;39.25;98202.44;8286505;28;20324;-77
2023/01/02 12:29:44;;;;;;;8.80;2.03;;;;;;;16.80;38.39;98185.44;8282795;28;20250;-78
2023/01/02 12:33:54;;;;;;;4.57;1.90;;;;;;;16.74;38.90;98162.31;8284200;28;20518;-77
2023/01/02 12:37:59;;;;;;;4.30;1.70;;;;;;;16.92;38.66;98203.91;8285555;28;20237;-77
2023/01/02 12:42:13;;;;;;;4.33;2.00;;;;;;;16.84;37.93;98200.97;8285793;28;20231;-79
2023/01/02 12:46:27;;;;;;;3.43;1.70;;;;;;;17.03;39.09;98196.16;8285520;28;20545;-79
2023/01/02 12:50:43;;;;;;;5.77;1.97;;;;;;;17.07;39.08;98202.03;8285656;28;20238;-79
2023/01/02 12:55:01;;;;;;;8.80;2.17;;;;;;;17.07;38.45;98212.50;8285130;28;20234;-78
2023/01/02 12:59:25;;;;;;;8.97;2.37;;;;;;;17.08;39.05;98217.66;8285256;28;20250;-78
2023/01/02 13:03:47;;;;;;;8.80;2.63;;;;;;;16.71;39.65;98217.41;8285239;28;20238;-79
2023/01/02 13:07:53;;;;;;;5.37;1.90;;;;;;;16.85;39.71;98216.56;8284553;28;20535;-77
2023/01/02 13:12:03;;;;;;;4.70;2.00;;;;;;;16.71;39.18;98219.19;8284732;28;20238;-77
2023/01/02 13:16:10;;;;;;;8.77;2.40;;;;;;;16.55;39.51;98225.44;8284854;28;20233;-78
2023/01/02 13:20:33;;;;;;;5.40;2.40;;;;;;;16.36;39.74;98209.25;8284017;28;20233;-79
2023/01/02 13:24:36;;;;;;;7.80;2.30;;;;;;;16.32;39.99;98213.00;8284411;28;20241;-77
2023/01/02 13:28:42;;;;;;;6.77;2.40;;;;;;;16.41;40.28;98228.06;8284255;28;20247;-78
2023/01/02 13:32:47;;;;;;;9.83;2.30;;;;;;;16.38;40.45;98223.91;8283750;28;20241;-78
2023/01/02 13:36:51;;;;;;;7.10;2.20;;;;;;;16.36;40.52;98217.94;8284093;28;20241;-77
2023/01/02 13:40:56;;;;;;;5.87;2.37;;;;;;;16.39;40.95;98228.19;8284008;28;20426;-78
2023/01/02 13:45:00;;;;;;;6.20;1.90;;;;;;;16.30;41.28;98223.56;8283817;28;20240;-78
2023/01/02 13:49:05;;;;;;;8.33;2.10;;;;;;;16.25;41.74;98233.44;8283449;28;20237;-77
2023/01/02 13:53:27;;;;;;;6.00;2.27;;;;;;;15.99;41.93;98233.31;8283559;28;20226;-78
2023/01/02 13:57:32;;;;;;;6.13;1.70;;;;;;;16.08;42.13;98236.28;8283439;28;20233;-79
2023/01/02 14:02:14;;;;;;;5.30;1.97;;;;;;;15.97;42.95;98250.00;8283267;28;20236;-75
2023/01/02 14:06:29;;;;;;;8.97;2.23;;;;;;;15.74;43.42;98244.41;8279581;28;20305;-76
2023/01/02 14:10:40;;;;;;;4.40;2.00;;;;;;;15.89;43.77;98263.53;8282060;28;20237;-76
2023/01/02 14:14:46;;;;;;;7.20;2.20;;;;;;;15.90;44.31;98267.84;8282253;28;20220;-76
2023/01/02 14:19:06;;;;;;;6.13;2.17;;;;;;;15.75;44.31;98272.22;8282574;28;20244;-75
2023/01/02 14:23:10;;;;;;;6.47;1.97;;;;;;;15.81;44.56;98269.22;8282360;28;20234;-74
2023/01/02 14:27:23;;;;;;;5.20;1.80;;;;;;;15.75;44.30;98269.59;8282491;28;20238;-75
2023/01/02 14:31:32;;;;;;;5.87;1.90;;;;;;;15.68;45.00;98277.88;8281883;28;20233;-74
2023/01/02 14:35:39;;;;;;;7.07;2.00;;;;;;;15.83;44.55;98279.59;8282263;28;20297;-78
2023/01/02 14:39:42;;;;;;;5.40;3.43;;;;;;;15.73;44.87;98286.28;8281811;28;20256;-76
2023/01/02 14:43:47;;;;;;;7.33;3.97;;;;;;;15.72;45.28;98289.81;8282159;28;20630;-76
2023/01/02 14:47:52;;;;;;;8.77;2.40;;;;;;;15.63;45.55;98291.19;8282226;28;20536;-76
2023/01/02 14:51:59;;;;;;;6.40;2.57;;;;;;;15.70;45.15;98284.66;8281675;28;20285;-77
2023/01/02 14:56:04;;;;;;;5.50;2.50;;;;;;;15.71;45.66;98295.97;8281496;28;20235;-77
2023/01/02 15:00:13;;;;;;;7.07;3.40;;;;;;;15.65;45.68;98302.41;8281502;28;20526;-76
2023/01/02 15:04:21;;;;;;;7.37;2.40;;;;;;;15.49;46.10;98314.69;8281686;28;20235;-77
2023/01/02 15:08:33;;;;;;;5.20;2.37;;;;;;;15.61;45.91;98309.56;8281389;28;20259;-76
2023/01/02 15:17:06;;;;;;;7.27;3.37;;;;;;;15.51;46.36;98323.25;8248979;28;20237;-76
2023/01/02 15:21:11;;;;;;;7.47;2.87;;;;;;;15.45;46.51;98327.06;8252060;28;20229;-77
2023/01/02 15:25:30;;;;;;;13.20;4.93;;;;;;;15.42;46.57;98333.31;8255556;28;20229;-75
2023/01/02 15:29:33;;;;;;;5.33;2.20;;;;;;;15.36;47.13;98330.19;8255498;28;20458;-75
2023/01/02 15:33:35;;;;;;;7.37;2.30;;;;;;;15.29;46.91;98321.91;8255487;28;20254;-74
2023/01/02 15:37:42;;;;;;;4.73;1.90;;;;;;;15.23;47.14;98337.88;8255298;28;20415;-75
2023/01/02 15:41:47;;;;;;;5.23;2.17;;;;;;;15.22;47.21;98350.09;8286281;28;20232;-74
2023/01/02 15:45:52;;;;;;;7.97;2.00;;;;;;;15.21;47.84;98355.41;8287204;28;20236;-74
2023/01/02 15:49:56;;;;;;;4.50;2.33;;;;;;;15.20;47.76;98351.97;8287507;28;20238;-75
2023/01/02 15:53:58;;;;;;;4.10;2.00;;;;;;;15.18;47.99;98353.81;8287951;28;20236;-78
2023/01/02 15:58:24;;;;;;;5.17;1.80;;;;;;;15.23;47.79;98358.75;8287715;28;20229;-77
2023/01/02 16:02:32;;;;;;;7.73;1.83;;;;;;;15.25;47.88;98372.59;8287375;28;20231;-77
2023/01/02 16:06:39;;;;;;;4.20;1.90;;;;;;;15.20;48.47;98372.00;8287644;28;20258;-77
2023/01/02 16:10:44;;;;;;;5.10;1.60;;;;;;;15.16;48.75;98371.31;8286930;28;20410;-76
2023/01/02 16:14:55;;;;;;;5.63;2.00;;;;;;;15.07;49.02;98387.50;8286992;28;20343;-77
2023/01/02 16:19:00;;;;;;;4.20;2.10;;;;;;;15.11;49.22;98391.59;8286966;28;20243;-77
2023/01/02 16:23:06;;;;;;;3.07;1.60;;;;;;;15.01;49.51;98393.06;8286841;28;20259;-77
2023/01/02 16:27:12;;;;;;;2.47;1.60;;;;;;;15.11;49.13;98389.00;8287029;28;20223;-78
2023/01/02 16:31:18;;;;;;;4.33;1.67;;;;;;;15.15;49.41;98397.50;8285957;28;20548;-77
2023/01/02 16:35:22;;;;;;;5.00;2.30;;;;;;;15.04;49.66;98382.44;8286412;28;20228;-77
2023/01/02 16:39:41;;;;;;;8.30;2.93;;;;;;;14.82;49.46;98349.75;8286497;28;20231;-76
2023/01/02 16:43:45;;;;;;;6.27;2.60;;;;;;;15.01;49.59;98406.94;8285733;28;20531;-76
2023/01/02 16:47:50;;;;;;;8.73;2.27;;;;;;;14.93;50.04;98397.88;8285957;28;20261;-75
2023/01/02 16:51:54;;;;;;;7.03;2.90;;;;;;;14.88;49.81;98377.25;8286005;28;20561;-78
2023/01/02 16:55:57;;;;;;;6.10;2.50;;;;;;;14.98;50.05;98399.28;8285920;28;20232;-78
2023/01/02 16:59:59;;;;;;;6.00;2.67;;;;;;;14.99;49.90;98402.75;8285585;28;20241;-79
2023/01/02 17:04:04;;;;;;;5.37;2.77;;;;;;;14.93;49.69;98408.28;8285612;28;20227;-78
2023/01/02 17:08:07;;;;;;;8.83;2.73;;;;;;;14.96;49.73;98402.91;8285347;28;20230;-78
2023/01/02 17:12:10;;;;;;;6.70;3.50;;;;;;;14.94;50.02;98410.78;8285398;28;20235;-78
2023/01/02 17:16:13;;;;;;;10.00;4.63;;;;;;;14.81;50.24;98405.44;8284940;28;20227;-78
2023/01/02 17:20:18;;;;;;;8.53;4.03;;;;;;;14.96;49.69;98415.94;8284563;28;20526;-78
2023/01/02 17:24:20;;;;;;;10.63;4.70;;;;;;;14.92;50.03;98417.03;8284414;28;20236;-79
2023/01/02 17:28:23;;;;;;;5.80;3.33;;;;;;;14.94;49.92;98423.00;8284530;28;20251;-79
2023/01/02 17:32:26;;;;;;;8.53;2.90;;;;;;;14.89;50.13;98431.09;8284281;28;20427;-80
2023/01/02 17:36:30;;;;;;;7.90;2.67;;;;;;;14.85;50.56;98426.97;8284285;28;20518;-80
2023/01/02 17:40:33;;;;;;;9.77;2.80;;;;;;;14.88;50.21;98420.75;8284150;28;20231;-80
2023/01/02 17:44:37;;;;;;;6.20;2.80;;;;;;;14.84;50.47;98425.28;8282862;28;20223;-79
2023/01/02 17:48:41;;;;;;;13.07;3.80;;;;;;;14.81;50.46;98439.31;8283897;28;20235;-80
2023/01/02 17:52:45;;;;;;;7.30;3.53;;;;;;;14.82;50.45;98443.59;8282938;28;20278;-79
2023/01/02 17:56:48;;;;;;;10.23;3.73;;;;;;;14.79;50.16;98443.78;8283832;28;20547;-77
2023/01/02 18:00:51;;;;;;;8.80;3.60;;;;;;;14.64;50.26;98445.44;8283226;28;20236;-81
2023/01/02 18:04:54;;;;;;;9.23;3.73;;;;;;;14.68;50.65;98453.09;8283294;28;20235;-79
2023/01/02 18:08:59;;;;;;;6.63;3.20;;;;;;;14.70;50.65;98465.13;8283267;28;20234;-78
2023/01/02 18:13:02;;;;;;;5.30;2.70;;;;;;;14.68;50.51;98453.09;8282841;28;20246;-79
2023/01/02 18:17:13;;;;;;;8.53;2.93;;;;;;;14.74;50.46;98463.22;8282784;28;20227;-79
2023/01/02 18:21:18;;;;;;;11.20;3.20;;;;;;;14.51;50.39;98483.47;8282490;28;20231;-79
2023/01/02 18:25:25;;;;;;;8.93;3.00;;;;;;;14.71;50.40;98473.78;8282761;28;20231;-77
2023/01/02 18:29:28;;;;;;;8.77;3.33;;;;;;;14.73;50.15;98483.19;8282373;28;20227;-78
2023/01/02 18:33:33;;;;;;;11.17;3.27;;;;;;;14.83;50.60;98487.00;8282278;28;20231;-78
2023/01/02 18:37:36;;;;;;;7.73;2.43;;;;;;;14.82;50.02;98487.94;8281959;28;20560;-78
2023/01/02 18:41:40;;;;;;;6.80;2.17;;;;;;;14.70;50.45;98491.19;8281875;28;20231;-79
2023/01/02 18:45:43;;;;;;;6.63;2.93;;;;;;;14.71;50.75;98513.72;8281449;28;20255;-79
2023/01/02 18:49:46;;;;;;;7.47;3.03;;;;;;;14.71;50.68;98520.72;8281930;28;20425;-78
2023/01/02 18:53:50;;;;;;;10.33;2.97;;;;;;;14.57;51.37;98506.63;8281194;28;20239;-77
2023/01/02 18:57:58;;;;;;;10.13;2.80;;;;;;;14.66;51.31;98523.56;8281385;28;20235;-80
2023/01/02 19:02:01;;;;;;;7.57;2.10;;;;;;;14.49;52.70;98527.00;8281702;28;20253;-79
2023/01/02 19:06:14;;;;;;;8.63;2.47;;;;;;;14.52;53.19;98537.25;8281704;28;20410;-78
2023/01/02 19:10:26;;;;;;;8.20;2.50;;;;;;;14.59;53.35;98535.22;8281416;28;20237;-78
2023/01/02 19:14:40;;;;;;;5.20;2.17;;;;;;;14.54;54.13;98543.22;8281380;28;20223;-77
2023/01/02 19:18:44;;;;;;;9.07;2.53;;;;;;;15.13;67.91;98546.25;8281100;28;20235;-78
2023/01/02 19:22:47;;;;;;;6.67;2.37;;;;;;;15.66;62.20;98559.91;8281107;28;20246;-77
2023/01/02 19:26:54;;;;;;;8.27;2.80;;;;;;;15.32;56.72;98563.53;8281267;28;20234;-79
2023/01/02 19:30:58;;;;;;;6.77;2.60;;;;;;;15.11;54.51;98566.38;8281210;28;20232;-80
2023/01/02 19:35:10;;;;;;;4.57;2.27;;;;;;;14.95;54.90;98587.22;8281309;28;20239;-80
2023/01/02 19:39:25;;;;;;;6.63;3.00;;;;;;;14.80;54.86;98588.84;8281566;28;20227;-79
2023/01/02 19:43:27;;;;;;;7.03;2.97;;;;;;;14.45;56.77;98598.44;8280977;28;20224;-80
2023/01/02 19:47:34;;;;;;;5.47;2.40;;;;;;;14.36;56.83;98602.34;8280787;28;20736;-79
2023/01/02 19:51:36;;;;;;;4.23;2.03;;;;;;;14.36;57.44;98604.13;8281163;28;20236;-79
2023/01/02 19:55:39;;;;;;;7.07;2.30;;;;;;;13.90;58.99;98602.00;8281156;28;20398;-75
2023/01/02 19:59:44;;;;;;;6.80;2.33;;;;;;;14.09;58.76;98614.97;8272351;28;20230;-74
2023/01/02 20:03:48;;;;;;;3.57;2.10;;;;;;;14.07;58.68;98622.84;8280930;28;20538;-75
2023/01/02 20:07:52;;;;;;;5.00;1.90;;;;;;;13.77;59.60;98629.53;8283378;28;20538;-74
2023/01/02 20:16:15;;;;;;;4.53;2.17;;;;;;;13.44;60.00;98663.97;8286529;28;20227;-75
2023/01/02 20:20:21;;;;;;;1.93;1.17;;;;;;;13.01;58.93;98671.03;8286229;28;20251;-74
2023/01/02 20:24:26;;;;;;;0.87;0.80;;;;;;;13.21;58.73;98681.44;8286471;28;20253;-75
2023/01/02 20:28:30;;;;;;;2.57;0.80;;;;;;;13.20;57.90;98681.47;8286141;28;20233;-75
2023/01/02 20:32:33;;;;;;;0.70;0.70;;;;;;;13.10;57.83;98683.63;8286026;28;20579;-76
2023/01/02 20:36:37;;;;;;;1.47;0.60;;;;;;;13.00;58.30;98696.16;8286218;28;20280;-76
2023/01/02 20:40:40;;;;;;;1.23;0.80;;;;;;;13.16;57.70;98705.94;8285977;28;20222;-75
2023/01/02 20:44:43;;;;;;;0.80;0.80;;;;;;;13.02;57.77;98706.50;8285357;28;20461;-74
2023/01/02 20:48:46;;;;;;;0.40;0.40;;;;;;;13.30;57.11;98711.41;8285435;28;20233;-75
2023/01/02 20:52:50;;;;;;;0.70;0.70;;;;;;;13.41;56.23;98724.78;8285382;28;20260;-75